sensor_id;sensor_type;location;lat;lon;timestamp;temperature;humidity
17284;DHT22;8760;52.248;20.952;2023-04-26T00:00:17;7.70;99.90
17284;DHT22;8760;52.248;20.952;2023-04-26T00:02:45;7.70;99.90
17284;DHT22;8760;52.248;20.952;2023-04-26T00:05:13;7.60;99.90
17284;DHT22;8760;52.248;20.952;2023-04-26T00:07:42;7.60;99.90
17284;DHT22;8760;52.248;20.952;2023-04-26T00:10:09;7.50;99.90
17284;DHT22;8760;52.248;20.952;2023-04-26T00:12:37;7.50;99.90
17284;DHT22;8760;52.248;20.952;2023-04-26T00:15:06;7.50;99.90
17284;DHT22;8760;52.248;20.952;2023-04-26T00:17:34;7.50;99.90
17284;DHT22;8760;52.248;20.952;2023-04-26T00:20:01;7.50;99.90
17284;DHT22;8760;52.248;20.952;2023-04-26T00:22:28;7.50;99.90
17284;DHT22;8760;52.248;20.952;2023-04-26T00:24:57;7.50;99.90
17284;DHT22;8760;52.248;20.952;2023-04-26T00:27:24;7.40;99.90
17284;DHT22;8760;52.248;20.952;2023-04-26T00:29:51;7.50;99.90
17284;DHT22;8760;52.248;20.952;2023-04-26T00:32:18;7.50;99.90
17284;DHT22;8760;52.248;20.952;2023-04-26T00:34:44;7.50;99.90
17284;DHT22;8760;52.248;20.952;2023-04-26T00:37:12;7.40;99.90
17284;DHT22;8760;52.248;20.952;2023-04-26T00:39:41;7.30;99.90
17284;DHT22;8760;52.248;20.952;2023-04-26T00:42:09;7.30;99.90
17284;DHT22;8760;52.248;20.952;2023-04-26T00:44:36;7.30;99.90
17284;DHT22;8760;52.248;20.952;2023-04-26T00:47:04;7.30;99.90
17284;DHT22;8760;52.248;20.952;2023-04-26T00:49:32;7.20;99.90
17284;DHT22;8760;52.248;20.952;2023-04-26T00:51:59;7.20;99.90
17284;DHT22;8760;52.248;20.952;2023-04-26T00:54:26;7.20;99.90
17284;DHT22;8760;52.248;20.952;2023-04-26T00:56:53;7.20;99.90
17284;DHT22;8760;52.248;20.952;2023-04-26T00:59:22;7.20;99.90
17284;DHT22;8760;52.248;20.952;2023-04-26T01:01:49;7.20;99.90
17284;DHT22;8760;52.248;20.952;2023-04-26T01:04:16;7.20;99.90
17284;DHT22;8760;52.248;20.952;2023-04-26T01:06:43;7.20;99.90
17284;DHT22;8760;52.248;20.952;2023-04-26T01:09:11;7.20;99.90
17284;DHT22;8760;52.248;20.952;2023-04-26T01:11:40;7.20;99.90
17284;DHT22;8760;52.248;20.952;2023-04-26T01:14:08;7.20;99.90
17284;DHT22;8760;52.248;20.952;2023-04-26T01:16:37;7.20;99.90
17284;DHT22;8760;52.248;20.952;2023-04-26T01:19:09;7.20;99.90
17284;DHT22;8760;52.248;20.952;2023-04-26T01:21:38;7.20;99.90
17284;DHT22;8760;52.248;20.952;2023-04-26T01:24:08;7.20;99.90
17284;DHT22;8760;52.248;20.952;2023-04-26T01:26:36;7.20;99.90
17284;DHT22;8760;52.248;20.952;2023-04-26T01:29:15;7.20;99.90
17284;DHT22;8760;52.248;20.952;2023-04-26T01:31:43;7.20;99.90
17284;DHT22;8760;52.248;20.952;2023-04-26T01:34:10;7.20;99.90
17284;DHT22;8760;52.248;20.952;2023-04-26T01:36:37;7.10;99.90
17284;DHT22;8760;52.248;20.952;2023-04-26T01:39:04;7.00;99.90
17284;DHT22;8760;52.248;20.952;2023-04-26T01:41:34;7.00;99.90
17284;DHT22;8760;52.248;20.952;2023-04-26T01:44:01;7.00;99.90
17284;DHT22;8760;52.248;20.952;2023-04-26T01:46:27;7.00;99.90
17284;DHT22;8760;52.248;20.952;2023-04-26T01:48:54;7.00;99.90
17284;DHT22;8760;52.248;20.952;2023-04-26T01:51:21;7.00;99.90
17284;DHT22;8760;52.248;20.952;2023-04-26T01:53:48;7.00;99.90
17284;DHT22;8760;52.248;20.952;2023-04-26T01:56:15;7.00;99.90
17284;DHT22;8760;52.248;20.952;2023-04-26T01:58:44;7.00;99.90
17284;DHT22;8760;52.248;20.952;2023-04-26T02:01:11;6.90;99.90
17284;DHT22;8760;52.248;20.952;2023-04-26T02:03:38;6.80;99.90
17284;DHT22;8760;52.248;20.952;2023-04-26T02:06:05;6.80;99.90
17284;DHT22;8760;52.248;20.952;2023-04-26T02:08:32;6.70;99.90
17284;DHT22;8760;52.248;20.952;2023-04-26T02:10:58;6.70;99.90
17284;DHT22;8760;52.248;20.952;2023-04-26T02:13:25;6.70;99.90
17284;DHT22;8760;52.248;20.952;2023-04-26T02:15:54;6.80;99.90
17284;DHT22;8760;52.248;20.952;2023-04-26T02:18:21;6.80;99.90
17284;DHT22;8760;52.248;20.952;2023-04-26T02:20:48;6.80;99.90
17284;DHT22;8760;52.248;20.952;2023-04-26T02:23:15;6.80;99.90
17284;DHT22;8760;52.248;20.952;2023-04-26T02:25:44;6.90;99.90
17284;DHT22;8760;52.248;20.952;2023-04-26T02:28:11;6.90;99.90
17284;DHT22;8760;52.248;20.952;2023-04-26T02:30:38;6.90;99.90
17284;DHT22;8760;52.248;20.952;2023-04-26T02:33:07;6.80;99.90
17284;DHT22;8760;52.248;20.952;2023-04-26T02:35:34;6.80;99.90
17284;DHT22;8760;52.248;20.952;2023-04-26T02:38:01;6.80;99.90
17284;DHT22;8760;52.248;20.952;2023-04-26T02:40:28;6.90;99.90
17284;DHT22;8760;52.248;20.952;2023-04-26T02:42:55;6.90;99.90
17284;DHT22;8760;52.248;20.952;2023-04-26T02:45:22;6.90;99.90
17284;DHT22;8760;52.248;20.952;2023-04-26T02:47:49;6.90;99.90
17284;DHT22;8760;52.248;20.952;2023-04-26T02:50:17;7.00;99.90
17284;DHT22;8760;52.248;20.952;2023-04-26T02:52:44;6.90;99.90
17284;DHT22;8760;52.248;20.952;2023-04-26T02:55:11;6.90;99.90
17284;DHT22;8760;52.248;20.952;2023-04-26T02:57:38;6.90;99.90
17284;DHT22;8760;52.248;20.952;2023-04-26T03:00:06;6.90;99.90
17284;DHT22;8760;52.248;20.952;2023-04-26T03:02:33;6.90;99.90
17284;DHT22;8760;52.248;20.952;2023-04-26T03:05:00;6.90;99.90
17284;DHT22;8760;52.248;20.952;2023-04-26T03:07:29;6.80;99.90
17284;DHT22;8760;52.248;20.952;2023-04-26T03:09:57;6.80;99.90
17284;DHT22;8760;52.248;20.952;2023-04-26T03:12:25;6.80;99.90
17284;DHT22;8760;52.248;20.952;2023-04-26T03:14:51;6.80;99.90
17284;DHT22;8760;52.248;20.952;2023-04-26T03:17:18;6.80;99.90
17284;DHT22;8760;52.248;20.952;2023-04-26T03:19:45;6.80;99.90
17284;DHT22;8760;52.248;20.952;2023-04-26T03:22:12;6.80;99.90
17284;DHT22;8760;52.248;20.952;2023-04-26T03:24:42;6.70;99.90
17284;DHT22;8760;52.248;20.952;2023-04-26T03:27:09;6.60;99.90
17284;DHT22;8760;52.248;20.952;2023-04-26T03:29:36;6.50;99.90
17284;DHT22;8760;52.248;20.952;2023-04-26T03:32:03;6.40;99.90
17284;DHT22;8760;52.248;20.952;2023-04-26T03:34:30;6.40;99.90
17284;DHT22;8760;52.248;20.952;2023-04-26T03:36:57;6.30;99.90
17284;DHT22;8760;52.248;20.952;2023-04-26T03:39:24;6.20;99.90
17284;DHT22;8760;52.248;20.952;2023-04-26T03:41:52;6.10;99.90
17284;DHT22;8760;52.248;20.952;2023-04-26T03:44:19;6.10;99.90
17284;DHT22;8760;52.248;20.952;2023-04-26T03:46:46;5.90;99.90
17284;DHT22;8760;52.248;20.952;2023-04-26T03:49:13;5.90;99.90
17284;DHT22;8760;52.248;20.952;2023-04-26T03:51:40;5.90;99.90
17284;DHT22;8760;52.248;20.952;2023-04-26T03:54:07;5.80;99.90
17284;DHT22;8760;52.248;20.952;2023-04-26T03:56:34;5.70;99.90
17284;DHT22;8760;52.248;20.952;2023-04-26T03:59:02;5.70;99.90
17284;DHT22;8760;52.248;20.952;2023-04-26T04:01:29;5.60;99.90
17284;DHT22;8760;52.248;20.952;2023-04-26T04:03:56;5.60;99.90
17284;DHT22;8760;52.248;20.952;2023-04-26T04:06:23;5.60;99.90
17284;DHT22;8760;52.248;20.952;2023-04-26T04:08:50;5.50;99.90
17284;DHT22;8760;52.248;20.952;2023-04-26T04:11:17;5.50;99.90
17284;DHT22;8760;52.248;20.952;2023-04-26T04:13:43;5.50;99.90
17284;DHT22;8760;52.248;20.952;2023-04-26T04:16:12;5.50;99.90
17284;DHT22;8760;52.248;20.952;2023-04-26T04:18:38;5.50;99.90
17284;DHT22;8760;52.248;20.952;2023-04-26T04:21:05;5.50;99.90
17284;DHT22;8760;52.248;20.952;2023-04-26T04:23:32;5.50;99.90
17284;DHT22;8760;52.248;20.952;2023-04-26T04:25:59;5.60;99.90
17284;DHT22;8760;52.248;20.952;2023-04-26T04:28:26;5.60;99.90
17284;DHT22;8760;52.248;20.952;2023-04-26T04:30:54;5.50;99.90
17284;DHT22;8760;52.248;20.952;2023-04-26T04:33:23;5.60;99.90
17284;DHT22;8760;52.248;20.952;2023-04-26T04:35:53;5.60;99.90
17284;DHT22;8760;52.248;20.952;2023-04-26T04:38:20;5.70;99.90
17284;DHT22;8760;52.248;20.952;2023-04-26T04:40:47;5.70;90.90
17284;DHT22;8760;52.248;20.952;2023-04-26T04:43:15;5.70;99.90
17284;DHT22;8760;52.248;20.952;2023-04-26T04:45:42;5.80;99.90
17284;DHT22;8760;52.248;20.952;2023-04-26T04:48:09;5.80;99.90
17284;DHT22;8760;52.248;20.952;2023-04-26T04:50:38;5.80;12.30
17284;DHT22;8760;52.248;20.952;2023-04-26T04:53:05;5.80;99.90
17284;DHT22;8760;52.248;20.952;2023-04-26T04:55:33;5.80;99.90
17284;DHT22;8760;52.248;20.952;2023-04-26T04:58:01;5.80;99.90
17284;DHT22;8760;52.248;20.952;2023-04-26T05:00:28;5.80;99.90
17284;DHT22;8760;52.248;20.952;2023-04-26T05:02:55;5.90;1.00
17284;DHT22;8760;52.248;20.952;2023-04-26T05:05:22;5.90;1.00
17284;DHT22;8760;52.248;20.952;2023-04-26T05:07:51;5.90;1.00
17284;DHT22;8760;52.248;20.952;2023-04-26T05:10:18;5.90;1.00
17284;DHT22;8760;52.248;20.952;2023-04-26T05:12:45;5.90;1.00
17284;DHT22;8760;52.248;20.952;2023-04-26T05:15:12;5.90;1.00
17284;DHT22;8760;52.248;20.952;2023-04-26T05:17:40;5.90;99.90
17284;DHT22;8760;52.248;20.952;2023-04-26T05:20:08;6.00;35.80
17284;DHT22;8760;52.248;20.952;2023-04-26T05:22:35;5.90;1.00
17284;DHT22;8760;52.248;20.952;2023-04-26T05:25:07;5.90;99.90
17284;DHT22;8760;52.248;20.952;2023-04-26T05:27:35;5.90;99.90
17284;DHT22;8760;52.248;20.952;2023-04-26T05:30:02;6.00;1.00
17284;DHT22;8760;52.248;20.952;2023-04-26T05:32:29;5.90;1.00
17284;DHT22;8760;52.248;20.952;2023-04-26T05:34:57;6.00;1.00
17284;DHT22;8760;52.248;20.952;2023-04-26T05:37:24;6.10;1.00
17284;DHT22;8760;52.248;20.952;2023-04-26T05:39:50;6.20;99.90
17284;DHT22;8760;52.248;20.952;2023-04-26T05:42:19;6.30;99.90
17284;DHT22;8760;52.248;20.952;2023-04-26T05:44:46;6.50;1.00
17284;DHT22;8760;52.248;20.952;2023-04-26T05:47:12;6.60;1.00
17284;DHT22;8760;52.248;20.952;2023-04-26T05:49:39;6.70;1.00
17284;DHT22;8760;52.248;20.952;2023-04-26T05:52:06;6.90;99.90
17284;DHT22;8760;52.248;20.952;2023-04-26T05:54:33;7.00;99.90
17284;DHT22;8760;52.248;20.952;2023-04-26T05:57:00;7.20;99.90
17284;DHT22;8760;52.248;20.952;2023-04-26T05:59:29;7.40;1.00
17284;DHT22;8760;52.248;20.952;2023-04-26T06:01:57;7.50;1.00
17284;DHT22;8760;52.248;20.952;2023-04-26T06:04:24;7.70;99.90
17284;DHT22;8760;52.248;20.952;2023-04-26T06:06:51;7.80;99.90
17284;DHT22;8760;52.248;20.952;2023-04-26T06:09:18;8.10;99.90
17284;DHT22;8760;52.248;20.952;2023-04-26T06:11:44;8.20;1.00
17284;DHT22;8760;52.248;20.952;2023-04-26T06:14:12;8.50;1.00
17284;DHT22;8760;52.248;20.952;2023-04-26T06:16:40;8.70;1.00
17284;DHT22;8760;52.248;20.952;2023-04-26T06:19:07;8.90;99.90
17284;DHT22;8760;52.248;20.952;2023-04-26T06:21:34;8.90;99.90
17284;DHT22;8760;52.248;20.952;2023-04-26T06:24:01;9.00;1.00
17284;DHT22;8760;52.248;20.952;2023-04-26T06:26:28;9.20;89.50
17284;DHT22;8760;52.248;20.952;2023-04-26T06:28:56;9.30;99.90
17284;DHT22;8760;52.248;20.952;2023-04-26T06:31:24;9.40;99.90
17284;DHT22;8760;52.248;20.952;2023-04-26T06:33:52;9.50;49.30
17284;DHT22;8760;52.248;20.952;2023-04-26T06:36:19;9.70;2.60
17284;DHT22;8760;52.248;20.952;2023-04-26T06:38:46;9.90;1.00
17284;DHT22;8760;52.248;20.952;2023-04-26T06:41:13;10.00;1.00
17284;DHT22;8760;52.248;20.952;2023-04-26T06:43:40;10.20;39.20
17284;DHT22;8760;52.248;20.952;2023-04-26T06:46:07;10.50;1.00
17284;DHT22;8760;52.248;20.952;2023-04-26T06:48:33;10.70;1.00
17284;DHT22;8760;52.248;20.952;2023-04-26T06:51:05;10.90;1.00
17284;DHT22;8760;52.248;20.952;2023-04-26T06:53:33;11.10;1.00
17284;DHT22;8760;52.248;20.952;2023-04-26T06:56:00;11.20;99.90
17284;DHT22;8760;52.248;20.952;2023-04-26T06:58:27;11.30;99.90
17284;DHT22;8760;52.248;20.952;2023-04-26T07:00:54;11.40;99.90
17284;DHT22;8760;52.248;20.952;2023-04-26T07:03:22;11.70;99.90
17284;DHT22;8760;52.248;20.952;2023-04-26T07:05:49;12.10;99.90
17284;DHT22;8760;52.248;20.952;2023-04-26T07:08:17;12.60;99.90
17284;DHT22;8760;52.248;20.952;2023-04-26T07:10:44;13.10;99.90
17284;DHT22;8760;52.248;20.952;2023-04-26T07:13:11;13.40;99.90
17284;DHT22;8760;52.248;20.952;2023-04-26T07:15:38;13.60;99.90
17284;DHT22;8760;52.248;20.952;2023-04-26T07:18:04;13.80;99.90
17284;DHT22;8760;52.248;20.952;2023-04-26T07:20:31;13.80;99.90
17284;DHT22;8760;52.248;20.952;2023-04-26T07:22:58;13.60;99.90
17284;DHT22;8760;52.248;20.952;2023-04-26T07:25:26;13.60;99.90
17284;DHT22;8760;52.248;20.952;2023-04-26T07:27:53;13.60;99.90
17284;DHT22;8760;52.248;20.952;2023-04-26T07:30:20;13.90;99.90
17284;DHT22;8760;52.248;20.952;2023-04-26T07:32:47;14.30;99.90
17284;DHT22;8760;52.248;20.952;2023-04-26T07:35:14;14.20;99.90
17284;DHT22;8760;52.248;20.952;2023-04-26T07:37:42;14.40;99.90
17284;DHT22;8760;52.248;20.952;2023-04-26T07:40:10;14.80;99.90
17284;DHT22;8760;52.248;20.952;2023-04-26T07:42:39;14.20;99.90
17284;DHT22;8760;52.248;20.952;2023-04-26T07:45:07;13.50;99.90
17284;DHT22;8760;52.248;20.952;2023-04-26T07:47:34;12.90;99.90
17284;DHT22;8760;52.248;20.952;2023-04-26T07:50:01;12.50;99.90
17284;DHT22;8760;52.248;20.952;2023-04-26T07:52:28;12.20;99.90
17284;DHT22;8760;52.248;20.952;2023-04-26T07:54:55;11.90;99.90
17284;DHT22;8760;52.248;20.952;2023-04-26T07:57:21;11.40;99.90
17284;DHT22;8760;52.248;20.952;2023-04-26T07:59:50;11.20;99.90
17284;DHT22;8760;52.248;20.952;2023-04-26T08:02:17;11.60;99.90
17284;DHT22;8760;52.248;20.952;2023-04-26T08:04:47;12.20;99.90
17284;DHT22;8760;52.248;20.952;2023-04-26T08:07:15;12.40;99.90
17284;DHT22;8760;52.248;20.952;2023-04-26T08:09:42;12.10;99.90
17284;DHT22;8760;52.248;20.952;2023-04-26T08:12:10;11.80;99.90
17284;DHT22;8760;52.248;20.952;2023-04-26T08:14:37;11.40;99.90
17284;DHT22;8760;52.248;20.952;2023-04-26T08:17:06;11.50;99.90
17284;DHT22;8760;52.248;20.952;2023-04-26T08:19:34;11.60;99.90
17284;DHT22;8760;52.248;20.952;2023-04-26T08:22:01;11.50;99.90
17284;DHT22;8760;52.248;20.952;2023-04-26T08:24:28;11.60;99.90
17284;DHT22;8760;52.248;20.952;2023-04-26T08:26:55;11.70;99.90
17284;DHT22;8760;52.248;20.952;2023-04-26T08:29:23;12.20;99.90
17284;DHT22;8760;52.248;20.952;2023-04-26T08:31:50;12.70;99.90
17284;DHT22;8760;52.248;20.952;2023-04-26T08:34:18;12.70;99.90
17284;DHT22;8760;52.248;20.952;2023-04-26T08:36:45;12.60;99.90
17284;DHT22;8760;52.248;20.952;2023-04-26T08:39:12;12.00;99.90
17284;DHT22;8760;52.248;20.952;2023-04-26T08:41:42;11.60;99.90
17284;DHT22;8760;52.248;20.952;2023-04-26T08:44:10;11.10;99.90
17284;DHT22;8760;52.248;20.952;2023-04-26T08:46:43;10.70;99.90
17284;DHT22;8760;52.248;20.952;2023-04-26T08:49:24;10.40;99.90
17284;DHT22;8760;52.248;20.952;2023-04-26T08:51:56;10.20;99.90
17284;DHT22;8760;52.248;20.952;2023-04-26T08:54:24;10.20;99.90
17284;DHT22;8760;52.248;20.952;2023-04-26T08:56:52;11.00;99.90
17284;DHT22;8760;52.248;20.952;2023-04-26T08:59:20;11.40;99.90
17284;DHT22;8760;52.248;20.952;2023-04-26T09:01:48;11.30;99.90
17284;DHT22;8760;52.248;20.952;2023-04-26T09:04:16;11.00;99.90
17284;DHT22;8760;52.248;20.952;2023-04-26T09:06:44;10.90;99.90
17284;DHT22;8760;52.248;20.952;2023-04-26T09:09:12;10.70;99.90
17284;DHT22;8760;52.248;20.952;2023-04-26T09:11:53;10.40;99.90
17284;DHT22;8760;52.248;20.952;2023-04-26T09:14:21;10.20;99.90
17284;DHT22;8760;52.248;20.952;2023-04-26T09:16:48;10.20;99.90
17284;DHT22;8760;52.248;20.952;2023-04-26T09:19:15;10.20;99.90
17284;DHT22;8760;52.248;20.952;2023-04-26T09:21:44;10.10;99.90
17284;DHT22;8760;52.248;20.952;2023-04-26T09:24:11;9.90;99.90
17284;DHT22;8760;52.248;20.952;2023-04-26T09:26:39;9.60;99.90
17284;DHT22;8760;52.248;20.952;2023-04-26T09:29:11;9.60;99.90
17284;DHT22;8760;52.248;20.952;2023-04-26T09:31:39;9.50;99.90
17284;DHT22;8760;52.248;20.952;2023-04-26T09:34:08;9.60;99.90
17284;DHT22;8760;52.248;20.952;2023-04-26T09:36:50;9.70;99.90
17284;DHT22;8760;52.248;20.952;2023-04-26T09:39:30;9.80;99.90
17284;DHT22;8760;52.248;20.952;2023-04-26T09:41:58;10.10;99.90
17284;DHT22;8760;52.248;20.952;2023-04-26T09:44:25;10.20;99.90
17284;DHT22;8760;52.248;20.952;2023-04-26T09:47:02;10.30;99.90
17284;DHT22;8760;52.248;20.952;2023-04-26T09:49:32;10.20;99.90
17284;DHT22;8760;52.248;20.952;2023-04-26T09:52:09;10.00;99.90
17284;DHT22;8760;52.248;20.952;2023-04-26T09:54:40;9.90;99.90
17284;DHT22;8760;52.248;20.952;2023-04-26T09:57:07;9.80;99.90
17284;DHT22;8760;52.248;20.952;2023-04-26T09:59:41;9.70;99.90
17284;DHT22;8760;52.248;20.952;2023-04-26T10:02:13;9.70;99.90
17284;DHT22;8760;52.248;20.952;2023-04-26T10:04:43;9.80;99.90
17284;DHT22;8760;52.248;20.952;2023-04-26T10:07:13;10.10;99.90
17284;DHT22;8760;52.248;20.952;2023-04-26T10:09:41;10.70;99.90
17284;DHT22;8760;52.248;20.952;2023-04-26T10:12:09;10.90;99.90
17284;DHT22;8760;52.248;20.952;2023-04-26T10:14:36;10.90;99.90
17284;DHT22;8760;52.248;20.952;2023-04-26T10:17:03;10.70;99.90
17284;DHT22;8760;52.248;20.952;2023-04-26T10:19:31;10.50;99.90
17284;DHT22;8760;52.248;20.952;2023-04-26T10:22:00;10.40;99.90
17284;DHT22;8760;52.248;20.952;2023-04-26T10:24:31;10.30;99.90
17284;DHT22;8760;52.248;20.952;2023-04-26T10:26:59;10.50;99.90
17284;DHT22;8760;52.248;20.952;2023-04-26T10:32:32;10.80;99.90
17284;DHT22;8760;52.248;20.952;2023-04-26T10:35:08;10.90;99.90
17284;DHT22;8760;52.248;20.952;2023-04-26T10:37:35;10.80;99.90
17284;DHT22;8760;52.248;20.952;2023-04-26T10:40:22;10.70;99.90
17284;DHT22;8760;52.248;20.952;2023-04-26T10:42:50;10.50;99.90
17284;DHT22;8760;52.248;20.952;2023-04-26T10:45:27;10.40;99.90
17284;DHT22;8760;52.248;20.952;2023-04-26T10:48:12;10.30;99.90
17284;DHT22;8760;52.248;20.952;2023-04-26T10:51:06;10.40;99.90
17284;DHT22;8760;52.248;20.952;2023-04-26T10:53:57;10.50;99.90
17284;DHT22;8760;52.248;20.952;2023-04-26T10:56:51;10.40;99.90
17284;DHT22;8760;52.248;20.952;2023-04-26T10:59:21;10.50;99.90
17284;DHT22;8760;52.248;20.952;2023-04-26T11:01:48;10.70;99.90
17284;DHT22;8760;52.248;20.952;2023-04-26T11:04:15;10.80;99.90
17284;DHT22;8760;52.248;20.952;2023-04-26T11:06:49;11.10;99.90
17284;DHT22;8760;52.248;20.952;2023-04-26T11:09:32;11.20;99.80
17284;DHT22;8760;52.248;20.952;2023-04-26T11:12:03;11.10;99.20
17284;DHT22;8760;52.248;20.952;2023-04-26T11:14:32;10.80;97.40
17284;DHT22;8760;52.248;20.952;2023-04-26T11:17:02;10.60;99.90
17284;DHT22;8760;52.248;20.952;2023-04-26T11:19:29;10.40;99.90
17284;DHT22;8760;52.248;20.952;2023-04-26T11:21:56;10.20;99.90
17284;DHT22;8760;52.248;20.952;2023-04-26T11:24:26;10.00;99.90
17284;DHT22;8760;52.248;20.952;2023-04-26T11:26:53;9.70;99.90
17284;DHT22;8760;52.248;20.952;2023-04-26T11:29:21;9.70;99.90
17284;DHT22;8760;52.248;20.952;2023-04-26T11:31:52;9.60;99.90
17284;DHT22;8760;52.248;20.952;2023-04-26T11:34:20;9.90;99.90
17284;DHT22;8760;52.248;20.952;2023-04-26T11:36:50;10.80;99.90
17284;DHT22;8760;52.248;20.952;2023-04-26T11:39:21;12.00;99.90
17284;DHT22;8760;52.248;20.952;2023-04-26T11:41:48;13.20;95.60
17284;DHT22;8760;52.248;20.952;2023-04-26T11:44:20;13.70;86.00
17284;DHT22;8760;52.248;20.952;2023-04-26T11:46:47;13.60;71.30
17284;DHT22;8760;52.248;20.952;2023-04-26T11:49:15;13.20;63.70
17284;DHT22;8760;52.248;20.952;2023-04-26T11:51:45;12.40;59.20
17284;DHT22;8760;52.248;20.952;2023-04-26T11:54:26;11.40;56.70
17284;DHT22;8760;52.248;20.952;2023-04-26T11:56:53;10.80;58.00
17284;DHT22;8760;52.248;20.952;2023-04-26T11:59:24;10.60;58.60
17284;DHT22;8760;52.248;20.952;2023-04-26T12:01:51;10.40;62.80
17284;DHT22;8760;52.248;20.952;2023-04-26T12:04:18;10.10;59.30
17284;DHT22;8760;52.248;20.952;2023-04-26T12:06:46;10.00;65.10
17284;DHT22;8760;52.248;20.952;2023-04-26T12:09:14;10.10;67.20
17284;DHT22;8760;52.248;20.952;2023-04-26T12:11:47;10.00;71.80
17284;DHT22;8760;52.248;20.952;2023-04-26T12:14:15;10.10;73.30
17284;DHT22;8760;52.248;20.952;2023-04-26T12:16:43;10.20;73.60
17284;DHT22;8760;52.248;20.952;2023-04-26T12:19:12;10.50;73.70
17284;DHT22;8760;52.248;20.952;2023-04-26T12:21:42;10.60;70.70
17284;DHT22;8760;52.248;20.952;2023-04-26T12:24:22;10.60;65.30
17284;DHT22;8760;52.248;20.952;2023-04-26T12:26:49;10.50;65.70
17284;DHT22;8760;52.248;20.952;2023-04-26T12:29:16;10.50;62.40
17284;DHT22;8760;52.248;20.952;2023-04-26T12:31:45;10.40;63.20
17284;DHT22;8760;52.248;20.952;2023-04-26T12:34:12;10.40;64.80
17284;DHT22;8760;52.248;20.952;2023-04-26T12:36:40;10.30;65.80
17284;DHT22;8760;52.248;20.952;2023-04-26T12:39:09;10.30;67.50
17284;DHT22;8760;52.248;20.952;2023-04-26T12:41:38;10.30;64.70
17284;DHT22;8760;52.248;20.952;2023-04-26T12:44:05;10.20;62.10
17284;DHT22;8760;52.248;20.952;2023-04-26T12:46:32;10.20;64.20
17284;DHT22;8760;52.248;20.952;2023-04-26T12:49:00;10.30;67.10
17284;DHT22;8760;52.248;20.952;2023-04-26T12:51:28;10.50;64.50
17284;DHT22;8760;52.248;20.952;2023-04-26T12:53:56;10.70;63.40
17284;DHT22;8760;52.248;20.952;2023-04-26T12:56:23;10.80;64.60
17284;DHT22;8760;52.248;20.952;2023-04-26T12:58:50;10.90;61.40
17284;DHT22;8760;52.248;20.952;2023-04-26T13:01:17;10.90;60.00
17284;DHT22;8760;52.248;20.952;2023-04-26T13:03:44;10.80;59.00
17284;DHT22;8760;52.248;20.952;2023-04-26T13:06:12;10.60;58.40
17284;DHT22;8760;52.248;20.952;2023-04-26T13:08:39;10.40;56.60
17284;DHT22;8760;52.248;20.952;2023-04-26T13:11:06;10.20;56.00
17284;DHT22;8760;52.248;20.952;2023-04-26T13:13:33;10.10;58.20
17284;DHT22;8760;52.248;20.952;2023-04-26T13:16:00;10.00;59.10
17284;DHT22;8760;52.248;20.952;2023-04-26T13:18:27;10.00;62.70
17284;DHT22;8760;52.248;20.952;2023-04-26T13:20:54;10.10;64.70
17284;DHT22;8760;52.248;20.952;2023-04-26T13:23:22;10.30;69.90
17284;DHT22;8760;52.248;20.952;2023-04-26T13:25:49;10.90;77.00
17284;DHT22;8760;52.248;20.952;2023-04-26T13:28:17;11.40;67.90
17284;DHT22;8760;52.248;20.952;2023-04-26T13:30:44;11.10;61.60
17284;DHT22;8760;52.248;20.952;2023-04-26T13:33:11;10.80;57.00
17284;DHT22;8760;52.248;20.952;2023-04-26T13:35:38;10.50;57.90
17284;DHT22;8760;52.248;20.952;2023-04-26T13:38:05;10.40;57.50
17284;DHT22;8760;52.248;20.952;2023-04-26T13:40:33;10.40;58.70
17284;DHT22;8760;52.248;20.952;2023-04-26T13:43:00;10.40;60.20
17284;DHT22;8760;52.248;20.952;2023-04-26T13:45:27;10.40;58.00
17284;DHT22;8760;52.248;20.952;2023-04-26T13:47:54;10.40;58.20
17284;DHT22;8760;52.248;20.952;2023-04-26T13:50:21;10.30;56.40
17284;DHT22;8760;52.248;20.952;2023-04-26T13:52:48;10.20;57.80
17284;DHT22;8760;52.248;20.952;2023-04-26T13:55:17;10.20;57.70
17284;DHT22;8760;52.248;20.952;2023-04-26T13:57:45;10.40;58.50
17284;DHT22;8760;52.248;20.952;2023-04-26T14:00:13;10.40;58.00
17284;DHT22;8760;52.248;20.952;2023-04-26T14:02:40;10.40;57.40
17284;DHT22;8760;52.248;20.952;2023-04-26T14:05:08;10.40;56.00
17284;DHT22;8760;52.248;20.952;2023-04-26T14:07:35;10.50;56.80
17284;DHT22;8760;52.248;20.952;2023-04-26T14:10:02;10.60;57.90
17284;DHT22;8760;52.248;20.952;2023-04-26T14:12:29;10.60;56.80
17284;DHT22;8760;52.248;20.952;2023-04-26T14:14:57;10.60;56.60
17284;DHT22;8760;52.248;20.952;2023-04-26T14:17:26;10.70;58.20
17284;DHT22;8760;52.248;20.952;2023-04-26T14:19:55;10.50;55.00
17284;DHT22;8760;52.248;20.952;2023-04-26T14:22:22;10.40;59.00
17284;DHT22;8760;52.248;20.952;2023-04-26T14:24:48;10.40;59.50
17284;DHT22;8760;52.248;20.952;2023-04-26T14:27:15;10.30;60.30
17284;DHT22;8760;52.248;20.952;2023-04-26T14:29:42;10.10;63.20
17284;DHT22;8760;52.248;20.952;2023-04-26T14:32:10;10.10;66.40
17284;DHT22;8760;52.248;20.952;2023-04-26T14:34:37;10.10;63.60
17284;DHT22;8760;52.248;20.952;2023-04-26T14:37:04;10.00;70.00
17284;DHT22;8760;52.248;20.952;2023-04-26T14:39:32;10.00;72.90
17284;DHT22;8760;52.248;20.952;2023-04-26T14:41:59;9.90;71.00
17284;DHT22;8760;52.248;20.952;2023-04-26T14:44:26;9.80;69.50
17284;DHT22;8760;52.248;20.952;2023-04-26T14:46:53;9.80;69.00
17284;DHT22;8760;52.248;20.952;2023-04-26T14:49:22;9.70;73.20
17284;DHT22;8760;52.248;20.952;2023-04-26T14:51:49;9.80;77.50
17284;DHT22;8760;52.248;20.952;2023-04-26T14:54:16;9.90;80.60
17284;DHT22;8760;52.248;20.952;2023-04-26T14:56:43;10.00;80.30
17284;DHT22;8760;52.248;20.952;2023-04-26T14:59:10;9.90;80.20
17284;DHT22;8760;52.248;20.952;2023-04-26T15:01:37;9.90;83.80
17284;DHT22;8760;52.248;20.952;2023-04-26T15:04:04;9.80;88.00
17284;DHT22;8760;52.248;20.952;2023-04-26T15:06:32;9.80;91.40
17284;DHT22;8760;52.248;20.952;2023-04-26T15:08:59;9.90;92.40
17284;DHT22;8760;52.248;20.952;2023-04-26T15:11:26;9.90;96.10
17284;DHT22;8760;52.248;20.952;2023-04-26T15:13:53;9.90;95.20
17284;DHT22;8760;52.248;20.952;2023-04-26T15:16:20;9.90;98.10
17284;DHT22;8760;52.248;20.952;2023-04-26T15:18:47;9.90;99.90
17284;DHT22;8760;52.248;20.952;2023-04-26T15:21:17;9.90;99.90
17284;DHT22;8760;52.248;20.952;2023-04-26T15:23:45;9.90;99.90
17284;DHT22;8760;52.248;20.952;2023-04-26T15:26:12;9.90;99.20
17284;DHT22;8760;52.248;20.952;2023-04-26T15:28:39;9.80;99.90
17284;DHT22;8760;52.248;20.952;2023-04-26T15:31:08;9.80;99.90
17284;DHT22;8760;52.248;20.952;2023-04-26T15:33:35;9.70;99.90
17284;DHT22;8760;52.248;20.952;2023-04-26T15:36:02;9.60;99.90
17284;DHT22;8760;52.248;20.952;2023-04-26T15:38:29;9.50;99.90
17284;DHT22;8760;52.248;20.952;2023-04-26T15:40:58;9.50;99.90
17284;DHT22;8760;52.248;20.952;2023-04-26T15:43:24;9.50;99.90
17284;DHT22;8760;52.248;20.952;2023-04-26T15:45:51;9.50;99.90
17284;DHT22;8760;52.248;20.952;2023-04-26T15:48:18;9.60;99.90